Terminal Aerodrome Forecast
Issued by NWS Charleston, WV

Current Version | Previous Version | Graphics & Text | Print | Product List | Glossary On
Versions: 1 2 3 4 5 6 7 8 9 10 11 12 13 14 15 16 17 18 19 20 21
000
FTUS41 KRLX 251732
TAFPKB
TAF
KPKB 251732Z 2518/2618 23009KT P6SM SCT060 BKN090
     FM252000 21009KT P6SM BKN070
     FM252300 23004KT P6SM VCTS BKN050CB
     FM260300 00000KT P6SM BKN050
     FM261600 19006KT P6SM BKN035
     FM261700 19007KT P6SM VCTS BKN030CB=

USA.gov is the U.S. government's official web portal to all federal, state and local government web resources and services.